Aviation Digital Data Service (ADDS)

Output produced by METARs form (1925 UTC 18 June 2019)
found at http://www.aviationweather.gov/metar/data/
 
SLCO 181900Z 32008KT 9999 FEW027 BKN200 33/23 Q1012
TAF SLCO 181700Z 1818/1918 17009KT 9999 SCT020 TX33/1820Z TN21/1911Z 
     BECMG 1823/1902 00000KT BKN013
       
SLCB 181900Z 10003KT 9999 FEW040 28/M02 Q1022
TAF SLCB 181700Z 1818/1918 32010KT 9999 FEW036 TX29/1819Z TN06/1911Z 
     BECMG 1902/1904 00000KT
       
SLLP 181900Z 29009G19KT 9999 FEW025 16/M07 Q1039
TAF SLLP 181700Z 1818/1918 29010KT 9999 FEW017 TX17/1820Z TNM04/1910Z 
     BECMG 1900/1903 VRB02KT
       
SLOR 181800Z 34008KT 9999 NSC 17/M02 Q1037
SLPO 181900Z 24007KT 9999 NSC 15/M07 Q1035
SLPS 181900Z 09008KT 9999 FEW020 31/24 Q1013
TAF SLPS 181700Z 1818/1918 09010KT 9999 FEW020 TX33/1819Z TN18/1911Z 
     BECMG 1823/1901 00000KT NSC FM 191200Z 24012KT SCT023 BKN070
       
SLRI 181900Z 00000KT 9999 SCT017 BKN200 32/22 Q1013
SLSA 181900Z 34006KT 9999 SCT020 BKN200 32/23 Q1011
SLET 181900Z 30017G27KT 9999 SCT017 27/20 Q1011
TAF SLET 181700Z 1818/1918 33015G25KT 9999 BKN020 TX30/1820Z TN15/1911Z 
     BECMG 1823/1901 34008KT SCT070 FM 190600Z 18010KT 7000 RADZ SCT010 BKN020
OVC070
       
SLVR 181900Z 33016G28KT 9999 FEW015 SCT020 28/22 Q1012
TAF SLVR 181700Z 1818/1918 34015G25KT 9999 BKN020 TX30/1820Z TN15/1911Z 
     BECMG 1823/1901 34008KT SCT070 FM 190600Z 18010KT 8000 RADZ SCT010 BKN020
OVC070
       
SLTJ 181900Z 00000KT 9999 NSC 31/M05 Q1014
TAF SLTJ 181700Z 1818/1918 31006KT 9999 FEW030 TX33/1819Z TN08/1911Z 
     BECMG 1914/1916 12010KT
       
SLTR 181900Z 35006KT 9999 SCT020 BKN200 32/23 Q1012
TAF SLTR 181700Z 1818/1918 34008KT 9999 SCT020 TX32/1820Z TN20/1911Z 
     BECMG 1823/1902 00000KT SCT015
       
SLVM 181900Z 18005KT 2000 -DZ BKN003 OVC070 13/12 Q1017
SLYA 181900Z 21006KT 3000 -DZ BKN005 OVC070 11/11 Q1016